sensor_id;sensor_type;location;lat;lon;timestamp;P1;durP1;ratioP1;P2;durP2;ratioP2
51214;SDS011;63849;47.546;19.254;2022-10-16T00:00:32;13.02;;;9.50;;
51214;SDS011;63849;47.546;19.254;2022-10-16T00:03:03;12.75;;;8.75;;
51214;SDS011;63849;47.546;19.254;2022-10-16T00:05:29;11.20;;;8.70;;
51214;SDS011;63849;47.546;19.254;2022-10-16T00:07:55;14.43;;;9.57;;
51214;SDS011;63849;47.546;19.254;2022-10-16T00:10:22;9.27;;;8.20;;
51214;SDS011;63849;47.546;19.254;2022-10-16T00:12:48;14.93;;;9.10;;
51214;SDS011;63849;47.546;19.254;2022-10-16T00:15:14;14.32;;;9.57;;
51214;SDS011;63849;47.546;19.254;2022-10-16T00:17:40;12.77;;;9.10;;
51214;SDS011;63849;47.546;19.254;2022-10-16T00:20:06;13.10;;;8.75;;
51214;SDS011;63849;47.546;19.254;2022-10-16T00:22:32;14.60;;;9.40;;
51214;SDS011;63849;47.546;19.254;2022-10-16T00:24:58;13.93;;;8.68;;
51214;SDS011;63849;47.546;19.254;2022-10-16T00:27:24;11.73;;;8.00;;
51214;SDS011;63849;47.546;19.254;2022-10-16T00:29:50;8.63;;;7.35;;
51214;SDS011;63849;47.546;19.254;2022-10-16T00:32:17;9.55;;;8.00;;
51214;SDS011;63849;47.546;19.254;2022-10-16T00:34:45;9.88;;;7.55;;
51214;SDS011;63849;47.546;19.254;2022-10-16T00:37:12;9.65;;;7.97;;
51214;SDS011;63849;47.546;19.254;2022-10-16T00:39:38;9.50;;;8.18;;
51214;SDS011;63849;47.546;19.254;2022-10-16T00:42:04;9.20;;;7.10;;
51214;SDS011;63849;47.546;19.254;2022-10-16T00:44:50;11.15;;;7.97;;
51214;SDS011;63849;47.546;19.254;2022-10-16T00:50:09;11.32;;;7.32;;
51214;SDS011;63849;47.546;19.254;2022-10-16T00:52:41;9.90;;;7.80;;
51214;SDS011;63849;47.546;19.254;2022-10-16T00:55:11;12.25;;;8.00;;
51214;SDS011;63849;47.546;19.254;2022-10-16T00:57:37;9.75;;;7.65;;
51214;SDS011;63849;47.546;19.254;2022-10-16T01:00:06;13.27;;;7.75;;
51214;SDS011;63849;47.546;19.254;2022-10-16T01:02:34;15.00;;;8.45;;
51214;SDS011;63849;47.546;19.254;2022-10-16T01:04:59;8.57;;;7.50;;
51214;SDS011;63849;47.546;19.254;2022-10-16T01:13:00;11.50;;;7.85;;
51214;SDS011;63849;47.546;19.254;2022-10-16T01:21:20;8.50;;;6.93;;
51214;SDS011;63849;47.546;19.254;2022-10-16T01:26:37;11.57;;;7.22;;
51214;SDS011;63849;47.546;19.254;2022-10-16T01:29:09;10.20;;;6.75;;
51214;SDS011;63849;47.546;19.254;2022-10-16T01:31:44;9.02;;;7.20;;
51214;SDS011;63849;47.546;19.254;2022-10-16T01:34:16;11.73;;;7.20;;
51214;SDS011;63849;47.546;19.254;2022-10-16T01:36:57;8.43;;;7.20;;
51214;SDS011;63849;47.546;19.254;2022-10-16T01:39:33;12.98;;;7.60;;
51214;SDS011;63849;47.546;19.254;2022-10-16T01:42:25;12.40;;;7.05;;
51214;SDS011;63849;47.546;19.254;2022-10-16T01:44:51;9.90;;;7.20;;
51214;SDS011;63849;47.546;19.254;2022-10-16T01:47:19;11.73;;;7.55;;
51214;SDS011;63849;47.546;19.254;2022-10-16T01:49:48;8.77;;;7.07;;
51214;SDS011;63849;47.546;19.254;2022-10-16T01:52:16;10.82;;;7.05;;
51214;SDS011;63849;47.546;19.254;2022-10-16T01:54:46;10.68;;;7.50;;
51214;SDS011;63849;47.546;19.254;2022-10-16T01:57:13;11.73;;;6.80;;
51214;SDS011;63849;47.546;19.254;2022-10-16T01:59:42;13.88;;;7.70;;
51214;SDS011;63849;47.546;19.254;2022-10-16T02:02:12;9.00;;;6.90;;
51214;SDS011;63849;47.546;19.254;2022-10-16T02:04:42;9.75;;;6.90;;
51214;SDS011;63849;47.546;19.254;2022-10-16T02:07:11;8.70;;;7.80;;
51214;SDS011;63849;47.546;19.254;2022-10-16T02:09:37;9.20;;;6.57;;
51214;SDS011;63849;47.546;19.254;2022-10-16T02:12:38;8.07;;;7.28;;
51214;SDS011;63849;47.546;19.254;2022-10-16T02:14:57;9.70;;;7.53;;
51214;SDS011;63849;47.546;19.254;2022-10-16T02:17:23;8.07;;;7.18;;
51214;SDS011;63849;47.546;19.254;2022-10-16T02:19:50;10.95;;;7.38;;
51214;SDS011;63849;47.546;19.254;2022-10-16T02:22:27;10.77;;;7.57;;
51214;SDS011;63849;47.546;19.254;2022-10-16T02:25:01;9.57;;;6.82;;
51214;SDS011;63849;47.546;19.254;2022-10-16T02:30:15;10.70;;;7.13;;
51214;SDS011;63849;47.546;19.254;2022-10-16T02:32:47;10.93;;;7.80;;
51214;SDS011;63849;47.546;19.254;2022-10-16T02:35:18;12.02;;;7.43;;
51214;SDS011;63849;47.546;19.254;2022-10-16T02:37:46;9.35;;;7.13;;
51214;SDS011;63849;47.546;19.254;2022-10-16T02:40:13;8.18;;;6.85;;
51214;SDS011;63849;47.546;19.254;2022-10-16T02:42:40;9.90;;;7.32;;
51214;SDS011;63849;47.546;19.254;2022-10-16T02:45:06;10.15;;;7.80;;
51214;SDS011;63849;47.546;19.254;2022-10-16T02:47:35;9.32;;;6.78;;
51214;SDS011;63849;47.546;19.254;2022-10-16T02:50:00;9.18;;;7.65;;
51214;SDS011;63849;47.546;19.254;2022-10-16T02:52:26;9.50;;;7.55;;
51214;SDS011;63849;47.546;19.254;2022-10-16T02:54:52;10.57;;;7.20;;
51214;SDS011;63849;47.546;19.254;2022-10-16T02:57:18;11.55;;;8.05;;
51214;SDS011;63849;47.546;19.254;2022-10-16T02:59:44;11.10;;;8.00;;
51214;SDS011;63849;47.546;19.254;2022-10-16T03:02:10;9.45;;;7.53;;
51214;SDS011;63849;47.546;19.254;2022-10-16T03:04:36;8.73;;;7.65;;
51214;SDS011;63849;47.546;19.254;2022-10-16T03:07:02;12.88;;;7.05;;
51214;SDS011;63849;47.546;19.254;2022-10-16T03:09:28;11.77;;;7.75;;
51214;SDS011;63849;47.546;19.254;2022-10-16T03:11:53;11.18;;;7.20;;
51214;SDS011;63849;47.546;19.254;2022-10-16T03:14:19;8.77;;;7.47;;
51214;SDS011;63849;47.546;19.254;2022-10-16T03:16:45;9.95;;;7.60;;
51214;SDS011;63849;47.546;19.254;2022-10-16T03:19:11;8.85;;;7.88;;
51214;SDS011;63849;47.546;19.254;2022-10-16T03:21:37;9.70;;;7.72;;
51214;SDS011;63849;47.546;19.254;2022-10-16T03:24:02;10.48;;;8.27;;
51214;SDS011;63849;47.546;19.254;2022-10-16T03:26:29;12.95;;;7.97;;
51214;SDS011;63849;47.546;19.254;2022-10-16T03:28:54;11.50;;;8.02;;
51214;SDS011;63849;47.546;19.254;2022-10-16T03:31:20;10.52;;;8.13;;
51214;SDS011;63849;47.546;19.254;2022-10-16T03:33:46;11.93;;;8.45;;
51214;SDS011;63849;47.546;19.254;2022-10-16T03:36:12;10.38;;;7.88;;
51214;SDS011;63849;47.546;19.254;2022-10-16T03:38:38;12.88;;;8.60;;
51214;SDS011;63849;47.546;19.254;2022-10-16T03:41:09;11.13;;;7.72;;
51214;SDS011;63849;47.546;19.254;2022-10-16T03:43:35;12.20;;;7.68;;
51214;SDS011;63849;47.546;19.254;2022-10-16T03:46:00;9.18;;;7.40;;
51214;SDS011;63849;47.546;19.254;2022-10-16T03:48:26;11.70;;;7.60;;
51214;SDS011;63849;47.546;19.254;2022-10-16T03:50:52;10.73;;;8.07;;
51214;SDS011;63849;47.546;19.254;2022-10-16T03:53:18;12.00;;;8.90;;
51214;SDS011;63849;47.546;19.254;2022-10-16T03:55:44;13.23;;;7.70;;
51214;SDS011;63849;47.546;19.254;2022-10-16T03:58:10;12.70;;;7.97;;
51214;SDS011;63849;47.546;19.254;2022-10-16T04:00:40;10.10;;;8.40;;
51214;SDS011;63849;47.546;19.254;2022-10-16T04:03:09;10.07;;;8.23;;
51214;SDS011;63849;47.546;19.254;2022-10-16T04:05:35;10.85;;;7.65;;
51214;SDS011;63849;47.546;19.254;2022-10-16T04:08:01;12.70;;;8.10;;
51214;SDS011;63849;47.546;19.254;2022-10-16T04:10:27;11.15;;;8.23;;
51214;SDS011;63849;47.546;19.254;2022-10-16T04:12:53;10.77;;;8.77;;
51214;SDS011;63849;47.546;19.254;2022-10-16T04:15:22;9.63;;;8.38;;
51214;SDS011;63849;47.546;19.254;2022-10-16T04:17:48;12.45;;;8.60;;
51214;SDS011;63849;47.546;19.254;2022-10-16T04:20:14;10.70;;;8.10;;
51214;SDS011;63849;47.546;19.254;2022-10-16T04:22:40;12.63;;;8.07;;
51214;SDS011;63849;47.546;19.254;2022-10-16T04:25:06;13.63;;;9.23;;
51214;SDS011;63849;47.546;19.254;2022-10-16T04:27:32;13.60;;;8.80;;
51214;SDS011;63849;47.546;19.254;2022-10-16T04:29:58;12.30;;;8.93;;
51214;SDS011;63849;47.546;19.254;2022-10-16T04:32:24;15.18;;;9.07;;
51214;SDS011;63849;47.546;19.254;2022-10-16T04:34:51;14.02;;;9.77;;
51214;SDS011;63849;47.546;19.254;2022-10-16T04:37:17;11.63;;;9.23;;
51214;SDS011;63849;47.546;19.254;2022-10-16T04:39:43;16.95;;;9.52;;
51214;SDS011;63849;47.546;19.254;2022-10-16T04:42:10;15.50;;;9.90;;
51214;SDS011;63849;47.546;19.254;2022-10-16T04:44:36;17.77;;;8.52;;
51214;SDS011;63849;47.546;19.254;2022-10-16T04:47:02;12.43;;;9.13;;
51214;SDS011;63849;47.546;19.254;2022-10-16T04:49:28;10.13;;;8.45;;
51214;SDS011;63849;47.546;19.254;2022-10-16T04:51:53;12.50;;;9.25;;
51214;SDS011;63849;47.546;19.254;2022-10-16T04:54:19;12.20;;;8.82;;
51214;SDS011;63849;47.546;19.254;2022-10-16T04:56:45;12.80;;;8.95;;
51214;SDS011;63849;47.546;19.254;2022-10-16T04:59:16;11.82;;;9.68;;
51214;SDS011;63849;47.546;19.254;2022-10-16T05:01:43;14.23;;;9.10;;
51214;SDS011;63849;47.546;19.254;2022-10-16T05:04:09;14.43;;;8.77;;
51214;SDS011;63849;47.546;19.254;2022-10-16T05:06:35;19.17;;;10.02;;
51214;SDS011;63849;47.546;19.254;2022-10-16T05:09:03;13.65;;;9.45;;
51214;SDS011;63849;47.546;19.254;2022-10-16T05:11:30;13.25;;;9.60;;
51214;SDS011;63849;47.546;19.254;2022-10-16T05:13:56;20.48;;;12.93;;
51214;SDS011;63849;47.546;19.254;2022-10-16T05:16:22;27.17;;;17.90;;
51214;SDS011;63849;47.546;19.254;2022-10-16T05:18:48;16.25;;;12.40;;
51214;SDS011;63849;47.546;19.254;2022-10-16T05:21:14;16.17;;;11.13;;
51214;SDS011;63849;47.546;19.254;2022-10-16T05:23:39;19.27;;;10.95;;
51214;SDS011;63849;47.546;19.254;2022-10-16T05:26:05;16.52;;;11.80;;
51214;SDS011;63849;47.546;19.254;2022-10-16T05:28:31;15.85;;;11.68;;
51214;SDS011;63849;47.546;19.254;2022-10-16T05:30:57;21.92;;;11.50;;
51214;SDS011;63849;47.546;19.254;2022-10-16T05:33:24;14.07;;;10.30;;
51214;SDS011;63849;47.546;19.254;2022-10-16T05:35:50;17.63;;;12.18;;
51214;SDS011;63849;47.546;19.254;2022-10-16T05:38:19;17.10;;;10.65;;
51214;SDS011;63849;47.546;19.254;2022-10-16T05:40:51;12.95;;;9.73;;
51214;SDS011;63849;47.546;19.254;2022-10-16T05:43:21;14.50;;;11.05;;
51214;SDS011;63849;47.546;19.254;2022-10-16T05:46:05;12.77;;;9.82;;
51214;SDS011;63849;47.546;19.254;2022-10-16T05:48:34;12.55;;;10.63;;
51214;SDS011;63849;47.546;19.254;2022-10-16T05:51:01;10.68;;;9.25;;
51214;SDS011;63849;47.546;19.254;2022-10-16T05:53:35;12.38;;;8.90;;
51214;SDS011;63849;47.546;19.254;2022-10-16T05:56:02;14.90;;;9.57;;
51214;SDS011;63849;47.546;19.254;2022-10-16T05:58:29;13.52;;;9.40;;
51214;SDS011;63849;47.546;19.254;2022-10-16T06:00:58;16.48;;;9.95;;
51214;SDS011;63849;47.546;19.254;2022-10-16T06:03:25;10.68;;;7.93;;
51214;SDS011;63849;47.546;19.254;2022-10-16T06:05:51;11.98;;;9.13;;
51214;SDS011;63849;47.546;19.254;2022-10-16T06:08:18;15.35;;;9.70;;
51214;SDS011;63849;47.546;19.254;2022-10-16T06:10:45;13.90;;;9.23;;
51214;SDS011;63849;47.546;19.254;2022-10-16T06:13:11;12.95;;;9.18;;
51214;SDS011;63849;47.546;19.254;2022-10-16T06:15:39;10.65;;;9.13;;
51214;SDS011;63849;47.546;19.254;2022-10-16T06:18:07;14.75;;;8.70;;
51214;SDS011;63849;47.546;19.254;2022-10-16T06:20:33;12.02;;;9.45;;
51214;SDS011;63849;47.546;19.254;2022-10-16T06:23:00;10.98;;;9.60;;
51214;SDS011;63849;47.546;19.254;2022-10-16T06:25:29;13.27;;;9.23;;
51214;SDS011;63849;47.546;19.254;2022-10-16T06:27:56;13.75;;;9.65;;
51214;SDS011;63849;47.546;19.254;2022-10-16T06:30:22;15.40;;;9.85;;
51214;SDS011;63849;47.546;19.254;2022-10-16T06:32:47;13.55;;;9.55;;
51214;SDS011;63849;47.546;19.254;2022-10-16T06:35:13;10.75;;;8.75;;
51214;SDS011;63849;47.546;19.254;2022-10-16T06:37:39;9.52;;;8.18;;
51214;SDS011;63849;47.546;19.254;2022-10-16T06:40:05;12.57;;;8.70;;
51214;SDS011;63849;47.546;19.254;2022-10-16T06:42:31;11.20;;;8.65;;
51214;SDS011;63849;47.546;19.254;2022-10-16T06:44:57;9.63;;;8.48;;
51214;SDS011;63849;47.546;19.254;2022-10-16T06:47:22;17.27;;;9.23;;
51214;SDS011;63849;47.546;19.254;2022-10-16T06:49:48;13.55;;;8.70;;
51214;SDS011;63849;47.546;19.254;2022-10-16T06:52:14;10.82;;;8.88;;
51214;SDS011;63849;47.546;19.254;2022-10-16T06:54:40;10.65;;;8.43;;
51214;SDS011;63849;47.546;19.254;2022-10-16T06:57:05;11.43;;;8.70;;
51214;SDS011;63849;47.546;19.254;2022-10-16T06:59:31;13.95;;;7.78;;
51214;SDS011;63849;47.546;19.254;2022-10-16T07:01:57;10.18;;;8.07;;
51214;SDS011;63849;47.546;19.254;2022-10-16T07:04:22;12.43;;;8.13;;
51214;SDS011;63849;47.546;19.254;2022-10-16T07:06:48;10.70;;;8.93;;
51214;SDS011;63849;47.546;19.254;2022-10-16T07:09:14;9.98;;;8.80;;
51214;SDS011;63849;47.546;19.254;2022-10-16T07:11:40;11.23;;;9.00;;
51214;SDS011;63849;47.546;19.254;2022-10-16T07:14:12;11.07;;;8.63;;
51214;SDS011;63849;47.546;19.254;2022-10-16T07:16:44;10.63;;;8.75;;
51214;SDS011;63849;47.546;19.254;2022-10-16T07:19:10;11.77;;;9.18;;
51214;SDS011;63849;47.546;19.254;2022-10-16T07:21:38;12.30;;;8.85;;
51214;SDS011;63849;47.546;19.254;2022-10-16T07:24:10;11.90;;;8.45;;
51214;SDS011;63849;47.546;19.254;2022-10-16T07:26:38;10.63;;;8.48;;
51214;SDS011;63849;47.546;19.254;2022-10-16T07:29:12;12.20;;;9.10;;
51214;SDS011;63849;47.546;19.254;2022-10-16T07:31:43;11.65;;;8.50;;
51214;SDS011;63849;47.546;19.254;2022-10-16T07:34:13;10.63;;;8.45;;
51214;SDS011;63849;47.546;19.254;2022-10-16T07:36:40;12.27;;;8.93;;
51214;SDS011;63849;47.546;19.254;2022-10-16T07:39:09;12.57;;;9.75;;
51214;SDS011;63849;47.546;19.254;2022-10-16T07:41:34;14.65;;;11.18;;
51214;SDS011;63849;47.546;19.254;2022-10-16T07:44:02;13.52;;;9.18;;
51214;SDS011;63849;47.546;19.254;2022-10-16T07:46:28;12.25;;;8.57;;
51214;SDS011;63849;47.546;19.254;2022-10-16T07:48:55;12.65;;;9.68;;
51214;SDS011;63849;47.546;19.254;2022-10-16T07:51:22;10.45;;;8.32;;
51214;SDS011;63849;47.546;19.254;2022-10-16T07:53:49;11.38;;;8.80;;
51214;SDS011;63849;47.546;19.254;2022-10-16T07:56:16;11.15;;;8.73;;
51214;SDS011;63849;47.546;19.254;2022-10-16T07:58:42;13.00;;;8.65;;
51214;SDS011;63849;47.546;19.254;2022-10-16T08:01:09;18.13;;;8.60;;
51214;SDS011;63849;47.546;19.254;2022-10-16T08:03:38;11.25;;;8.73;;
51214;SDS011;63849;47.546;19.254;2022-10-16T08:06:03;10.68;;;8.93;;
51214;SDS011;63849;47.546;19.254;2022-10-16T08:08:30;13.07;;;8.40;;
51214;SDS011;63849;47.546;19.254;2022-10-16T08:10:55;11.60;;;8.95;;
51214;SDS011;63849;47.546;19.254;2022-10-16T08:13:21;11.18;;;9.07;;
51214;SDS011;63849;47.546;19.254;2022-10-16T08:15:47;10.68;;;8.45;;
51214;SDS011;63849;47.546;19.254;2022-10-16T08:18:13;12.77;;;8.82;;
51214;SDS011;63849;47.546;19.254;2022-10-16T08:20:40;11.57;;;9.10;;
51214;SDS011;63849;47.546;19.254;2022-10-16T08:23:06;12.73;;;9.85;;
51214;SDS011;63849;47.546;19.254;2022-10-16T08:25:34;12.52;;;9.15;;
51214;SDS011;63849;47.546;19.254;2022-10-16T08:28:03;11.40;;;9.18;;
51214;SDS011;63849;47.546;19.254;2022-10-16T08:30:30;11.45;;;8.48;;
51214;SDS011;63849;47.546;19.254;2022-10-16T08:32:57;10.63;;;8.70;;
51214;SDS011;63849;47.546;19.254;2022-10-16T08:35:23;9.52;;;8.35;;
51214;SDS011;63849;47.546;19.254;2022-10-16T08:37:49;10.27;;;7.43;;
51214;SDS011;63849;47.546;19.254;2022-10-16T08:40:25;11.85;;;8.40;;
51214;SDS011;63849;47.546;19.254;2022-10-16T08:46:15;10.55;;;8.55;;
51214;SDS011;63849;47.546;19.254;2022-10-16T08:48:57;11.43;;;8.57;;
51214;SDS011;63849;47.546;19.254;2022-10-16T08:51:29;11.25;;;8.02;;
51214;SDS011;63849;47.546;19.254;2022-10-16T08:54:04;9.82;;;8.82;;
51214;SDS011;63849;47.546;19.254;2022-10-16T08:56:45;11.75;;;8.73;;
51214;SDS011;63849;47.546;19.254;2022-10-16T08:59:11;9.60;;;7.80;;
51214;SDS011;63849;47.546;19.254;2022-10-16T09:01:42;14.40;;;8.63;;
51214;SDS011;63849;47.546;19.254;2022-10-16T09:06:46;10.45;;;8.27;;
51214;SDS011;63849;47.546;19.254;2022-10-16T09:17:22;11.35;;;8.70;;
51214;SDS011;63849;47.546;19.254;2022-10-16T09:22:42;11.43;;;7.93;;
51214;SDS011;63849;47.546;19.254;2022-10-16T09:25:15;11.68;;;7.60;;
51214;SDS011;63849;47.546;19.254;2022-10-16T09:27:48;8.13;;;7.13;;
51214;SDS011;63849;47.546;19.254;2022-10-16T09:30:19;12.48;;;8.10;;
51214;SDS011;63849;47.546;19.254;2022-10-16T09:32:47;9.45;;;7.55;;
51214;SDS011;63849;47.546;19.254;2022-10-16T09:35:17;10.77;;;8.05;;
51214;SDS011;63849;47.546;19.254;2022-10-16T09:37:49;9.75;;;8.70;;
51214;SDS011;63849;47.546;19.254;2022-10-16T09:40:51;8.90;;;7.80;;
51214;SDS011;63849;47.546;19.254;2022-10-16T09:45:53;11.40;;;7.47;;
51214;SDS011;63849;47.546;19.254;2022-10-16T09:48:21;9.77;;;8.02;;
51214;SDS011;63849;47.546;19.254;2022-10-16T09:50:57;9.30;;;7.38;;
51214;SDS011;63849;47.546;19.254;2022-10-16T09:53:25;8.13;;;7.30;;
51214;SDS011;63849;47.546;19.254;2022-10-16T09:56:03;14.70;;;8.52;;
51214;SDS011;63849;47.546;19.254;2022-10-16T09:58:31;13.55;;;7.90;;
51214;SDS011;63849;47.546;19.254;2022-10-16T10:00:58;9.02;;;7.38;;
51214;SDS011;63849;47.546;19.254;2022-10-16T10:03:37;10.73;;;7.68;;
51214;SDS011;63849;47.546;19.254;2022-10-16T10:06:27;9.77;;;7.35;;
51214;SDS011;63849;47.546;19.254;2022-10-16T10:11:44;10.15;;;7.43;;
51214;SDS011;63849;47.546;19.254;2022-10-16T10:17:15;8.63;;;6.85;;
51214;SDS011;63849;47.546;19.254;2022-10-16T10:22:22;8.55;;;6.82;;
51214;SDS011;63849;47.546;19.254;2022-10-16T10:33:17;10.07;;;6.60;;
51214;SDS011;63849;47.546;19.254;2022-10-16T10:57:44;7.93;;;6.57;;
51214;SDS011;63849;47.546;19.254;2022-10-16T11:03:03;8.68;;;6.20;;
51214;SDS011;63849;47.546;19.254;2022-10-16T11:08:17;9.75;;;6.53;;
51214;SDS011;63849;47.546;19.254;2022-10-16T11:16:28;9.60;;;6.50;;
51214;SDS011;63849;47.546;19.254;2022-10-16T11:21:35;9.18;;;5.75;;
51214;SDS011;63849;47.546;19.254;2022-10-16T11:24:14;9.50;;;6.65;;
51214;SDS011;63849;47.546;19.254;2022-10-16T11:26:48;9.48;;;6.45;;
51214;SDS011;63849;47.546;19.254;2022-10-16T11:29:19;10.38;;;6.30;;
51214;SDS011;63849;47.546;19.254;2022-10-16T11:31:51;9.52;;;6.43;;
51214;SDS011;63849;47.546;19.254;2022-10-16T11:39:24;8.02;;;6.25;;
51214;SDS011;63849;47.546;19.254;2022-10-16T11:47:31;8.10;;;6.32;;
51214;SDS011;63849;47.546;19.254;2022-10-16T11:53:16;7.53;;;5.82;;
51214;SDS011;63849;47.546;19.254;2022-10-16T11:55:52;7.43;;;4.95;;
51214;SDS011;63849;47.546;19.254;2022-10-16T12:06:28;10.85;;;6.47;;
51214;SDS011;63849;47.546;19.254;2022-10-16T12:16:57;6.78;;;5.57;;
51214;SDS011;63849;47.546;19.254;2022-10-16T12:19:57;7.30;;;5.50;;
51214;SDS011;63849;47.546;19.254;2022-10-16T12:22:48;6.50;;;5.43;;
51214;SDS011;63849;47.546;19.254;2022-10-16T12:25:20;5.65;;;5.15;;
51214;SDS011;63849;47.546;19.254;2022-10-16T12:27:53;7.32;;;5.85;;
51214;SDS011;63849;47.546;19.254;2022-10-16T12:30:22;6.82;;;5.28;;
51214;SDS011;63849;47.546;19.254;2022-10-16T12:32:56;6.03;;;5.10;;
51214;SDS011;63849;47.546;19.254;2022-10-16T12:35:34;6.20;;;4.70;;
51214;SDS011;63849;47.546;19.254;2022-10-16T12:38:16;5.78;;;5.10;;
51214;SDS011;63849;47.546;19.254;2022-10-16T12:41:00;8.73;;;5.72;;
51214;SDS011;63849;47.546;19.254;2022-10-16T12:48:29;6.75;;;4.80;;
51214;SDS011;63849;47.546;19.254;2022-10-16T12:50:55;7.13;;;5.13;;
51214;SDS011;63849;47.546;19.254;2022-10-16T12:53:23;8.50;;;5.07;;
51214;SDS011;63849;47.546;19.254;2022-10-16T12:55:53;6.38;;;5.03;;
51214;SDS011;63849;47.546;19.254;2022-10-16T13:01:19;8.68;;;5.35;;
51214;SDS011;63849;47.546;19.254;2022-10-16T13:06:33;6.53;;;4.80;;
51214;SDS011;63849;47.546;19.254;2022-10-16T13:17:41;7.30;;;5.35;;
51214;SDS011;63849;47.546;19.254;2022-10-16T13:20:32;6.05;;;4.90;;
51214;SDS011;63849;47.546;19.254;2022-10-16T13:28:46;7.05;;;4.70;;
51214;SDS011;63849;47.546;19.254;2022-10-16T13:31:22;6.25;;;4.45;;
51214;SDS011;63849;47.546;19.254;2022-10-16T13:33:50;6.88;;;4.68;;
51214;SDS011;63849;47.546;19.254;2022-10-16T13:36:23;6.30;;;4.63;;
51214;SDS011;63849;47.546;19.254;2022-10-16T13:41:36;7.63;;;4.73;;
51214;SDS011;63849;47.546;19.254;2022-10-16T13:44:02;4.78;;;4.28;;
51214;SDS011;63849;47.546;19.254;2022-10-16T13:46:30;4.82;;;4.22;;
51214;SDS011;63849;47.546;19.254;2022-10-16T13:49:10;7.28;;;4.28;;
51214;SDS011;63849;47.546;19.254;2022-10-16T13:51:38;5.10;;;4.60;;
51214;SDS011;63849;47.546;19.254;2022-10-16T13:54:04;6.72;;;4.35;;
51214;SDS011;63849;47.546;19.254;2022-10-16T13:56:30;5.10;;;4.30;;
51214;SDS011;63849;47.546;19.254;2022-10-16T13:58:58;7.75;;;4.35;;
51214;SDS011;63849;47.546;19.254;2022-10-16T14:01:41;6.18;;;3.97;;
51214;SDS011;63849;47.546;19.254;2022-10-16T14:04:09;6.57;;;4.43;;
51214;SDS011;63849;47.546;19.254;2022-10-16T14:06:40;7.93;;;4.63;;
51214;SDS011;63849;47.546;19.254;2022-10-16T14:09:08;5.30;;;4.43;;
51214;SDS011;63849;47.546;19.254;2022-10-16T14:12:00;5.78;;;4.38;;
51214;SDS011;63849;47.546;19.254;2022-10-16T14:14:31;5.93;;;4.32;;
51214;SDS011;63849;47.546;19.254;2022-10-16T14:17:04;5.05;;;4.00;;
51214;SDS011;63849;47.546;19.254;2022-10-16T14:19:30;5.22;;;4.03;;
51214;SDS011;63849;47.546;19.254;2022-10-16T14:21:57;6.63;;;4.28;;
51214;SDS011;63849;47.546;19.254;2022-10-16T14:24:26;8.60;;;4.47;;
51214;SDS011;63849;47.546;19.254;2022-10-16T14:26:52;6.45;;;4.22;;
51214;SDS011;63849;47.546;19.254;2022-10-16T14:29:21;6.05;;;4.30;;
51214;SDS011;63849;47.546;19.254;2022-10-16T14:31:55;8.35;;;4.20;;
51214;SDS011;63849;47.546;19.254;2022-10-16T14:34:32;5.72;;;4.20;;
51214;SDS011;63849;47.546;19.254;2022-10-16T14:37:00;8.43;;;4.20;;
51214;SDS011;63849;47.546;19.254;2022-10-16T14:39:32;6.65;;;4.45;;
51214;SDS011;63849;47.546;19.254;2022-10-16T14:41:58;5.93;;;4.43;;
51214;SDS011;63849;47.546;19.254;2022-10-16T14:44:27;6.63;;;4.00;;
51214;SDS011;63849;47.546;19.254;2022-10-16T14:46:55;4.40;;;4.00;;
51214;SDS011;63849;47.546;19.254;2022-10-16T14:49:22;4.88;;;4.22;;
51214;SDS011;63849;47.546;19.254;2022-10-16T14:51:49;5.18;;;4.30;;
51214;SDS011;63849;47.546;19.254;2022-10-16T14:54:16;4.45;;;4.05;;
51214;SDS011;63849;47.546;19.254;2022-10-16T14:59:22;6.03;;;4.18;;
51214;SDS011;63849;47.546;19.254;2022-10-16T15:01:55;4.90;;;4.45;;
51214;SDS011;63849;47.546;19.254;2022-10-16T15:04:22;7.13;;;4.32;;
51214;SDS011;63849;47.546;19.254;2022-10-16T15:06:47;5.72;;;4.85;;
51214;SDS011;63849;47.546;19.254;2022-10-16T15:09:13;5.50;;;4.25;;
51214;SDS011;63849;47.546;19.254;2022-10-16T15:11:39;9.30;;;4.50;;
51214;SDS011;63849;47.546;19.254;2022-10-16T15:14:08;4.32;;;3.92;;
51214;SDS011;63849;47.546;19.254;2022-10-16T15:16:36;7.18;;;4.30;;
51214;SDS011;63849;47.546;19.254;2022-10-16T15:19:02;7.70;;;6.32;;
51214;SDS011;63849;47.546;19.254;2022-10-16T15:21:29;15.43;;;10.80;;
51214;SDS011;63849;47.546;19.254;2022-10-16T15:23:56;17.08;;;12.27;;
51214;SDS011;63849;47.546;19.254;2022-10-16T15:26:24;17.38;;;12.65;;
51214;SDS011;63849;47.546;19.254;2022-10-16T15:28:50;17.33;;;12.18;;
51214;SDS011;63849;47.546;19.254;2022-10-16T15:31:17;16.63;;;12.02;;
51214;SDS011;63849;47.546;19.254;2022-10-16T15:33:42;18.92;;;10.98;;
51214;SDS011;63849;47.546;19.254;2022-10-16T15:36:08;18.60;;;13.25;;
51214;SDS011;63849;47.546;19.254;2022-10-16T15:38:35;16.08;;;12.85;;
51214;SDS011;63849;47.546;19.254;2022-10-16T15:41:01;16.92;;;12.88;;
51214;SDS011;63849;47.546;19.254;2022-10-16T15:43:29;16.33;;;12.13;;
51214;SDS011;63849;47.546;19.254;2022-10-16T15:46:02;16.33;;;12.77;;
51214;SDS011;63849;47.546;19.254;2022-10-16T15:48:30;17.13;;;13.43;;
51214;SDS011;63849;47.546;19.254;2022-10-16T15:50:57;20.38;;;14.13;;
51214;SDS011;63849;47.546;19.254;2022-10-16T15:53:23;21.70;;;13.52;;
51214;SDS011;63849;47.546;19.254;2022-10-16T15:55:49;21.92;;;14.35;;
51214;SDS011;63849;47.546;19.254;2022-10-16T15:58:14;20.15;;;12.38;;
51214;SDS011;63849;47.546;19.254;2022-10-16T16:00:40;22.70;;;14.07;;
51214;SDS011;63849;47.546;19.254;2022-10-16T16:03:06;21.85;;;14.68;;
51214;SDS011;63849;47.546;19.254;2022-10-16T16:05:32;25.00;;;15.23;;
51214;SDS011;63849;47.546;19.254;2022-10-16T16:07:58;21.55;;;14.43;;
51214;SDS011;63849;47.546;19.254;2022-10-16T16:10:24;20.98;;;12.38;;
51214;SDS011;63849;47.546;19.254;2022-10-16T16:12:50;17.83;;;12.68;;
51214;SDS011;63849;47.546;19.254;2022-10-16T16:15:18;19.95;;;13.88;;
51214;SDS011;63849;47.546;19.254;2022-10-16T16:17:44;19.38;;;13.38;;
51214;SDS011;63849;47.546;19.254;2022-10-16T16:20:10;21.98;;;14.15;;
51214;SDS011;63849;47.546;19.254;2022-10-16T16:22:36;21.38;;;14.07;;
51214;SDS011;63849;47.546;19.254;2022-10-16T16:25:02;20.05;;;14.27;;
51214;SDS011;63849;47.546;19.254;2022-10-16T16:27:28;23.25;;;14.52;;
51214;SDS011;63849;47.546;19.254;2022-10-16T16:29:55;23.58;;;13.55;;
51214;SDS011;63849;47.546;19.254;2022-10-16T16:32:21;18.70;;;12.73;;
51214;SDS011;63849;47.546;19.254;2022-10-16T16:34:47;15.98;;;12.15;;
51214;SDS011;63849;47.546;19.254;2022-10-16T16:37:13;16.75;;;11.88;;
51214;SDS011;63849;47.546;19.254;2022-10-16T16:39:39;16.38;;;12.00;;
51214;SDS011;63849;47.546;19.254;2022-10-16T16:42:04;16.20;;;10.38;;
51214;SDS011;63849;47.546;19.254;2022-10-16T16:44:32;14.02;;;10.98;;
51214;SDS011;63849;47.546;19.254;2022-10-16T16:47:01;13.43;;;8.80;;
51214;SDS011;63849;47.546;19.254;2022-10-16T16:49:27;13.88;;;10.20;;
51214;SDS011;63849;47.546;19.254;2022-10-16T16:51:53;24.27;;;14.57;;
51214;SDS011;63849;47.546;19.254;2022-10-16T16:54:19;33.67;;;19.58;;
51214;SDS011;63849;47.546;19.254;2022-10-16T16:56:45;98.85;;;47.45;;
51214;SDS011;63849;47.546;19.254;2022-10-16T16:59:16;126.07;;;59.33;;
51214;SDS011;63849;47.546;19.254;2022-10-16T17:01:44;133.45;;;62.97;;
51214;SDS011;63849;47.546;19.254;2022-10-16T17:04:11;127.15;;;62.67;;